Island Park, ID

9:11 AM MST on February 06, 2016 (GMT -0700)
Centennial Shores | | Change Station
CLOSE
Current Station
Personal Weather Station
Location: Island Park, ID
Elevation: 6295 ft
Nearby Weather Stations

Elev 6295 ft 44.44 °N, 111.46 °W | Updated 5 days ago

Snow
Snow
27 °F
Feels Like 18 °F
N
8
Wind Variable Wind from SSW
Gusts 14 mph

Today
High -- | Low -- °F
--% Chance of Precip.
Yesterday
High -- | Low -- °F
Precip. -- in
Pressure 30.42 in
Visibility 5.0 miles
Clouds Few 200 ft
Mostly Cloudy 3700 ft
Windchill 18 °F
Dew Point 17 °F
Humidity 64%
Rainfall in
Snow Depth Not available.
7:38 AM 5:41 PM
Waning Crescent, 5% visible
SPECI KRXE 061515Z AUTO 00000KT 5SM BR FEW002 BKN037 M08/M09 A3042 RMK AO2 T10831094
Pressure 30.42 in
Visibility 5.0 miles
Clouds Few 200 ft
Mostly Cloudy 3700 ft
Windchill 18 °F
Dew Point 17 °F
Humidity 64%
Rainfall in
Snow Depth Not available.
7:38 AM 5:41 PM
Waning Crescent, 5% visible
SPECI KRXE 061515Z AUTO 00000KT 5SM BR FEW002 BKN037 M08/M09 A3042 RMK AO2 T10831094

10-Day Weather Forecast

Almanac

Astronomy

Feb. 06, 2016 Rise Set
Actual Time
Civil Twilight
Nautical Twilight
Astronomical Twilight
Moon
Length of Visible Light
Length of Day
Tomorrow will be .
, % of the Moon is Illuminated

Today's Extremes

State Highs State Lows

Community

WunderPhotos

Upload Photos

1,891,004 photos uploaded!

WunderBlog® & News

Nearby

Air Quality

  Air Quality AQ Index Pollutant
Not available.

Snow Depth

Station Depth Elevation

Earthquake Activity

City Distance Mag. Time & Date
Minimum magnitude displayed is 2.5.

Coastal Water Temperatures

Place Temperature

Stations

Nearby Weather Stations

Station Location Temp. Windchill Dew Point Humidity Wind Precip. Elev Updated Type
                   

Watches & Warnings

There are currently no watches in effect.